Time;durP1;ratioP1;P1;durP2;ratioP2;P2;SDS_P1;SDS_P2;PMS_P1;PMS_P2;Temp;Humidity;BMP_temperature;BMP_pressure;BME280_temperature;BME280_humidity;BME280_pressure;Samples;Min_cycle;Max_cycle;Signal;HPM_P1;HPM_P2
2022/02/05 00:00:07;;;;;;;1.20;0.53;;;17.40;64.60;;;;;;10413978;28;20223;-68
2022/02/05 00:05:30;;;;;;;1.17;0.60;;;17.40;64.60;;;;;;10399169;28;20276;-67
2022/02/05 00:39:26;;;;;;;1.60;0.50;;;17.40;65.10;;;;;;10407535;28;20622;-67
2022/02/05 00:44:48;;;;;;;1.13;0.70;;;17.40;64.50;;;;;;10405532;28;20195;-67
2022/02/05 00:50:18;;;;;;;1.10;0.53;;;17.40;64.60;;;;;;10414931;28;20218;-67
2022/02/05 00:55:47;;;;;;;1.40;0.57;;;17.40;64.50;;;;;;10375309;28;20272;-68
2022/02/05 01:01:11;;;;;;;1.40;0.53;;;17.40;64.50;;;;;;10415750;28;20209;-68
2022/02/05 01:06:34;;;;;;;1.17;0.57;;;17.40;64.40;;;;;;10413781;28;20194;-67
2022/02/05 01:11:58;;;;;;;0.90;0.60;;;17.40;64.40;;;;;;10406432;28;20228;-67
2022/02/05 01:17:27;;;;;;;1.37;0.50;;;17.40;64.40;;;;;;10411718;28;20264;-66
2022/02/05 01:22:52;;;;;;;0.90;0.40;;;17.40;64.40;;;;;;10382118;28;20194;-68
2022/02/05 01:28:18;;;;;;;1.07;0.40;;;17.40;64.40;;;;;;10412269;28;20276;-67
2022/02/05 01:33:51;;;;;;;2.50;0.70;;;17.40;64.40;;;;;;10413549;28;20308;-66
2022/02/05 01:39:40;;;;;;;0.90;0.47;;;17.40;64.50;;;;;;10413379;28;20225;-67
2022/02/05 01:50:57;;;;;;;1.13;0.50;;;17.40;64.50;;;;;;10412327;28;20206;-67
2022/02/05 01:56:31;;;;;;;0.93;0.57;;;17.40;64.40;;;;;;10412886;28;20660;-69
2022/02/05 02:19:02;;;;;;;0.93;0.63;;;17.40;64.40;;;;;;10412188;28;20217;-67
2022/02/05 02:24:35;;;;;;;1.90;0.87;;;17.30;64.30;;;;;;10412303;28;20654;-67
2022/02/05 02:30:05;;;;;;;0.80;0.53;;;17.40;64.40;;;;;;10372347;28;20250;-67
2022/02/05 02:35:29;;;;;;;0.63;0.47;;;17.30;64.30;;;;;;10411446;28;20663;-67
2022/02/05 02:41:00;;;;;;;1.00;0.70;;;17.30;64.20;;;;;;10410869;28;20217;-67
2022/02/05 02:46:23;;;;;;;1.00;0.67;;;17.30;64.20;;;;;;10385047;28;20248;-67
2022/02/05 02:57:29;;;;;;;0.87;0.50;;;17.30;64.20;;;;;;10410166;28;20271;-67
2022/02/05 03:02:51;;;;;;;1.60;0.70;;;17.30;64.20;;;;;;10411601;28;20186;-68
2022/02/05 03:08:13;;;;;;;0.63;0.50;;;17.40;64.20;;;;;;10408941;28;20724;-68
2022/02/05 03:13:37;;;;;;;1.57;0.60;;;17.30;64.20;;;;;;10409340;28;20587;-67
2022/02/05 03:19:09;;;;;;;0.77;0.50;;;17.30;64.20;;;;;;10410320;28;20220;-66
2022/02/05 03:24:32;;;;;;;1.20;0.70;;;17.30;64.20;;;;;;10394466;28;20190;-66
2022/02/05 03:29:55;;;;;;;1.20;0.83;;;17.30;64.00;;;;;;10409621;28;20236;-67
2022/02/05 03:35:17;;;;;;;2.27;0.70;;;17.30;64.10;;;;;;10409126;28;20679;-67
2022/02/05 03:40:39;;;;;;;1.60;0.53;;;17.30;64.10;;;;;;10409499;28;20245;-66
2022/02/05 03:46:03;;;;;;;2.07;0.60;;;17.30;64.00;;;;;;10408490;28;20201;-66
2022/02/05 03:51:25;;;;;;;1.07;0.50;;;17.30;64.00;;;;;;10407907;28;20218;-66
2022/02/05 03:56:48;;;;;;;1.53;0.60;;;17.30;64.00;;;;;;10404689;28;20193;-66
2022/02/05 04:02:11;;;;;;;1.80;0.70;;;17.40;64.10;;;;;;10425218;28;20198;-66
2022/02/05 04:07:38;;;;;;;0.80;0.70;;;17.30;64.00;;;;;;10408888;28;20209;-66
2022/02/05 04:18:43;;;;;;;1.20;0.60;;;17.30;64.10;;;;;;10399888;28;20209;-66
2022/02/05 04:24:06;;;;;;;1.40;0.57;;;17.30;64.60;;;;;;10415920;28;20193;-66
2022/02/05 04:29:28;;;;;;;1.30;0.60;;;17.30;64.00;;;;;;10414027;28;20221;-66
2022/02/05 04:34:52;;;;;;;1.13;0.70;;;17.30;64.00;;;;;;10412462;28;20240;-66
2022/02/05 04:40:25;;;;;;;0.70;0.60;;;17.30;64.00;;;;;;10420914;23;20229;-70
2022/02/05 04:46:12;;;;;;;1.87;0.70;;;17.30;63.90;;;;;;10388265;28;20312;-69
2022/02/05 04:51:50;;;;;;;2.17;0.83;;;17.30;63.90;;;;;;10416629;28;20218;-69
2022/02/05 04:57:29;;;;;;;2.07;0.67;;;17.30;63.90;;;;;;10417634;28;20229;-69
2022/02/05 05:08:41;;;;;;;1.53;0.57;;;17.30;63.90;;;;;;10416047;28;20754;-70
2022/02/05 05:19:47;;;;;;;1.23;0.73;;;17.30;63.90;;;;;;10400059;28;20217;-69
2022/02/05 05:25:11;;;;;;;1.40;0.70;;;17.30;63.90;;;;;;10406175;28;20241;-69
2022/02/05 05:30:33;;;;;;;0.97;0.60;;;17.30;63.90;;;;;;10409696;28;20221;-69
2022/02/05 05:35:55;;;;;;;1.57;0.70;;;17.30;63.80;;;;;;10410319;28;20194;-70
2022/02/05 05:41:18;;;;;;;1.90;0.63;;;17.30;63.80;;;;;;10414172;28;20685;-69
2022/02/05 05:46:44;;;;;;;1.43;0.50;;;17.30;63.80;;;;;;10382006;28;20233;-69
2022/02/05 05:52:06;;;;;;;1.13;0.60;;;17.30;63.80;;;;;;10415296;28;20701;-69
2022/02/05 05:57:30;;;;;;;1.73;0.63;;;17.40;63.90;;;;;;10414581;28;20228;-69
2022/02/05 06:02:53;;;;;;;0.80;0.40;;;17.30;63.80;;;;;;10433783;28;20216;-70
2022/02/05 06:08:15;;;;;;;1.80;0.53;;;17.40;63.90;;;;;;10414138;28;20214;-68
2022/02/05 06:13:39;;;;;;;0.83;0.40;;;17.40;63.70;;;;;;10414797;28;20210;-69
2022/02/05 06:19:01;;;;;;;2.10;0.80;;;17.40;63.70;;;;;;10412966;28;20220;-70
2022/02/05 06:24:23;;;;;;;1.13;0.60;;;17.40;63.70;;;;;;10401193;28;20197;-71
2022/02/05 06:29:47;;;;;;;1.30;0.50;;;17.40;63.70;;;;;;10412109;28;20218;-69
2022/02/05 06:35:12;;;;;;;1.80;0.67;;;17.40;63.70;;;;;;10413603;28;20221;-69
2022/02/05 06:40:34;;;;;;;0.80;0.50;;;17.40;63.80;;;;;;10407503;28;20617;-68
2022/02/05 06:45:58;;;;;;;1.10;0.57;;;17.40;63.70;;;;;;10413303;28;20209;-69
2022/02/05 06:51:20;;;;;;;0.80;0.60;;;17.40;63.70;;;;;;10404547;28;20205;-70
2022/02/05 06:56:42;;;;;;;0.67;0.40;;;17.40;63.80;;;;;;10410182;28;20222;-69
2022/02/05 07:02:06;;;;;;;0.67;0.40;;;17.40;63.80;;;;;;10432378;28;20190;-70
2022/02/05 07:07:28;;;;;;;1.43;0.60;;;17.40;63.80;;;;;;10409198;28;20221;-69
2022/02/05 07:13:02;;;;;;;2.00;0.60;;;17.30;63.70;;;;;;10411150;28;20213;-69
2022/02/05 07:18:33;;;;;;;0.93;0.47;;;17.40;63.70;;;;;;10418920;28;20590;-69
2022/02/05 07:29:35;;;;;;;1.33;0.50;;;17.40;63.70;;;;;;10426358;28;20216;-69
2022/02/05 07:34:58;;;;;;;1.70;0.60;;;17.40;63.70;;;;;;10410545;28;20217;-68
2022/02/05 07:40:20;;;;;;;2.03;0.83;;;17.30;63.60;;;;;;10392649;28;20229;-70
2022/02/05 07:45:42;;;;;;;1.60;0.80;;;17.40;63.70;;;;;;10407012;28;20417;-70
2022/02/05 07:51:06;;;;;;;1.43;0.70;;;18.40;60.40;;;;;;10407680;28;20202;-70
2022/02/05 07:56:29;;;;;;;1.13;0.50;;;17.70;62.30;;;;;;10409412;28;20221;-72
2022/02/05 08:01:51;;;;;;;2.00;0.67;;;17.50;63.10;;;;;;10409042;28;20708;-70
2022/02/05 08:07:14;;;;;;;2.03;0.50;;;17.50;63.40;;;;;;10411738;28;20221;-69
2022/02/05 08:12:40;;;;;;;1.63;0.50;;;17.40;63.50;;;;;;10374460;28;20210;-69
2022/02/05 08:18:02;;;;;;;1.03;0.53;;;17.40;63.60;;;;;;10410296;28;20224;-69
2022/02/05 08:23:26;;;;;;;1.60;0.80;;;17.30;63.60;;;;;;10413656;28;20202;-69
2022/02/05 08:28:48;;;;;;;2.73;0.80;;;17.30;63.70;;;;;;10406575;28;20217;-70
2022/02/05 08:34:10;;;;;;;2.53;0.77;;;17.30;63.70;;;;;;10407842;28;20221;-70
2022/02/05 08:39:33;;;;;;;1.63;0.60;;;17.30;63.70;;;;;;10408081;28;20237;-70
2022/02/05 08:44:56;;;;;;;1.50;0.53;;;17.40;63.90;;;;;;10409478;28;20198;-69
2022/02/05 08:50:18;;;;;;;1.50;0.60;;;17.40;64.00;;;;;;10408364;28;20220;-70
2022/02/05 08:55:41;;;;;;;2.27;1.00;;;17.40;63.80;;;;;;10409646;28;20221;-70
2022/02/05 09:01:13;;;;;;;1.53;0.63;;;17.40;63.80;;;;;;10426338;28;20334;-69
2022/02/05 09:06:39;;;;;;;1.30;0.70;;;17.40;63.80;;;;;;10452344;28;20213;-71
2022/02/05 09:12:17;;;;;;;1.60;1.07;;;17.40;63.80;;;;;;10431716;28;20206;-70
2022/02/05 09:17:39;;;;;;;0.80;0.40;;;17.40;63.80;;;;;;10416623;28;20209;-71
2022/02/05 09:23:02;;;;;;;1.90;0.83;;;17.40;63.80;;;;;;10416629;28;20186;-69
2022/02/05 09:28:28;;;;;;;2.13;0.93;;;17.40;63.80;;;;;;10414799;28;20210;-70
2022/02/05 09:33:50;;;;;;;2.83;0.90;;;17.40;63.80;;;;;;10415547;28;20213;-69
2022/02/05 09:39:13;;;;;;;2.10;0.93;;;17.40;63.80;;;;;;10414732;28;20230;-69
2022/02/05 09:44:37;;;;;;;1.33;0.80;;;17.40;63.70;;;;;;10415251;28;20205;-70
2022/02/05 09:50:00;;;;;;;1.97;0.80;;;17.30;63.80;;;;;;10415120;28;20220;-68
2022/02/05 09:55:23;;;;;;;4.07;0.90;;;17.30;63.80;;;;;;10414252;28;20213;-70
2022/02/05 10:01:02;;;;;;;3.03;1.10;;;17.40;63.90;;;;;;10414164;28;20201;-70
2022/02/05 10:06:28;;;;;;;2.30;0.93;;;17.40;63.60;;;;;;10413661;28;20724;-70
2022/02/05 10:11:56;;;;;;;2.80;0.90;;;17.40;63.80;;;;;;10417953;28;20205;-70
2022/02/05 10:17:20;;;;;;;1.47;0.70;;;17.40;64.00;;;;;;10412772;28;20210;-70
2022/02/05 10:22:45;;;;;;;2.07;0.80;;;17.30;63.90;;;;;;10412917;28;20695;-69
2022/02/05 10:28:11;;;;;;;1.63;0.57;;;17.30;63.90;;;;;;10411931;28;20225;-70
2022/02/05 10:33:35;;;;;;;2.20;0.90;;;17.40;63.80;;;;;;10413657;28;20220;-71
2022/02/05 10:39:11;;;;;;;2.03;1.00;;;17.40;63.90;;;;;;10415976;22;20683;-65
2022/02/05 10:44:34;;;;;;;1.07;0.60;;;17.40;63.90;;;;;;10364310;28;20229;-65
2022/02/05 10:50:01;;;;;;;2.63;0.73;;;17.40;63.70;;;;;;10380449;28;20560;-65
2022/02/05 10:55:41;;;;;;;2.60;0.90;;;17.30;63.70;;;;;;10410449;28;20206;-65
2022/02/05 11:06:57;;;;;;;1.83;0.80;;;17.40;63.60;;;;;;10368814;28;20462;-64
2022/02/05 11:18:12;;;;;;;2.80;0.90;;;17.40;63.80;;;;;;10369102;28;20218;-65
2022/02/05 11:23:36;;;;;;;4.00;1.17;;;17.30;61.10;;;;;;10371534;28;20199;-64
2022/02/05 11:29:00;;;;;;;4.20;0.90;;;17.30;62.40;;;;;;10369186;28;20245;-66
2022/02/05 11:34:30;;;;;;;2.57;1.00;;;17.20;62.90;;;;;;10369130;28;20214;-65
2022/02/05 11:39:55;;;;;;;3.37;1.20;;;17.30;63.00;;;;;;10368456;28;20708;-64
2022/02/05 11:45:33;;;;;;;3.60;1.03;;;17.30;63.00;;;;;;10362986;28;20190;-65
2022/02/05 11:51:09;;;;;;;2.77;0.90;;;17.30;63.10;;;;;;10366756;28;20213;-65
2022/02/05 11:56:50;;;;;;;3.40;1.00;;;17.40;63.30;;;;;;10368182;28;20600;-64
2022/02/05 12:02:16;;;;;;;2.43;0.80;;;17.40;63.40;;;;;;10370444;28;20206;-65
2022/02/05 12:07:59;;;;;;;3.57;0.80;;;17.40;63.70;;;;;;10369989;28;20500;-65
2022/02/05 12:13:26;;;;;;;2.73;1.00;;;17.50;63.60;;;;;;10367359;28;20226;-64
2022/02/05 12:19:10;;;;;;;4.03;1.03;;;17.50;63.70;;;;;;10357703;28;20313;-64
2022/02/05 12:25:12;;;;;;;2.33;1.00;;;17.50;63.50;;;;;;10329642;28;20343;-65
2022/02/05 12:30:41;;;;;;;2.30;0.90;;;17.50;63.40;;;;;;10365321;28;20695;-65
2022/02/05 12:36:03;;;;;;;4.80;1.23;;;17.50;63.60;;;;;;10365767;28;20233;-65
2022/02/05 12:41:26;;;;;;;4.30;1.30;;;17.50;63.20;;;;;;10287427;28;20243;-65
2022/02/05 12:46:53;;;;;;;3.07;0.97;;;17.50;63.20;;;;;;10293782;28;20208;-65
2022/02/05 12:52:22;;;;;;;2.30;0.87;;;17.40;63.10;;;;;;10295899;28;20527;-65
2022/02/05 12:57:46;;;;;;;2.27;0.70;;;17.40;63.10;;;;;;10293602;28;20695;-65
2022/02/05 13:03:30;;;;;;;4.13;1.03;;;17.40;63.20;;;;;;10293519;28;20196;-65
2022/02/05 13:08:52;;;;;;;3.17;1.27;;;17.40;63.20;;;;;;10290878;28;20427;-65
2022/02/05 13:14:14;;;;;;;1.77;0.80;;;18.30;60.70;;;;;;10293728;28;20215;-65
2022/02/05 13:19:57;;;;;;;3.57;1.20;;;17.70;62.50;;;;;;10291802;28;20227;-66
2022/02/05 13:25:44;;;;;;;1.47;0.90;;;17.60;63.20;;;;;;10291672;28;20724;-65
2022/02/05 13:36:55;;;;;;;2.57;1.30;;;17.50;63.50;;;;;;10276303;28;20223;-65
2022/02/05 13:42:23;;;;;;;2.03;0.93;;;17.50;63.50;;;;;;10262978;28;20192;-66
2022/02/05 13:47:51;;;;;;;1.37;0.80;;;17.60;63.50;;;;;;10283801;28;20798;-65
2022/02/05 13:53:15;;;;;;;2.27;0.80;;;17.60;63.50;;;;;;10285466;28;20216;-65
2022/02/05 13:58:38;;;;;;;1.70;0.90;;;17.60;63.40;;;;;;10283240;28;20230;-65
2022/02/05 14:04:12;;;;;;;4.90;1.20;;;17.50;63.30;;;;;;10285353;28;20246;-65
2022/02/05 14:09:36;;;;;;;3.37;1.17;;;17.60;63.20;;;;;;10274235;28;20215;-66
2022/02/05 14:15:03;;;;;;;2.70;1.00;;;17.50;63.30;;;;;;10291524;28;20216;-65
2022/02/05 14:20:25;;;;;;;2.53;1.17;;;17.60;63.30;;;;;;10290741;28;20212;-65
2022/02/05 14:26:03;;;;;;;2.07;0.80;;;17.50;63.20;;;;;;10289382;28;20196;-65
2022/02/05 14:31:32;;;;;;;1.40;0.93;;;17.60;63.60;;;;;;10286127;28;20599;-66
2022/02/05 14:42:41;;;;;;;3.13;1.07;;;17.60;63.30;;;;;;10287941;28;20199;-65
2022/02/05 14:48:04;;;;;;;2.53;0.90;;;17.60;63.20;;;;;;10285752;28;20216;-66
2022/02/05 14:53:26;;;;;;;1.87;0.80;;;17.60;63.20;;;;;;10287423;28;20596;-65
2022/02/05 14:58:50;;;;;;;2.60;1.00;;;17.60;63.20;;;;;;10285909;28;20748;-65
2022/02/05 15:04:12;;;;;;;1.60;0.90;;;17.50;62.90;;;;;;10288509;28;20188;-65
2022/02/05 15:09:35;;;;;;;2.07;1.00;;;17.50;62.90;;;;;;10247460;29;20216;-65
2022/02/05 15:14:58;;;;;;;2.53;1.07;;;17.50;63.00;;;;;;10280966;28;20505;-65
2022/02/05 15:20:21;;;;;;;2.57;0.97;;;17.50;63.20;;;;;;10284189;28;20220;-65
2022/02/05 15:25:44;;;;;;;1.57;0.73;;;17.40;63.20;;;;;;10286253;28;20283;-65
2022/02/05 15:31:07;;;;;;;2.33;1.10;;;17.40;63.30;;;;;;10287761;28;20303;-65
2022/02/05 15:36:34;;;;;;;2.50;1.10;;;17.40;63.40;;;;;;10287302;28;20485;-65
2022/02/05 15:47:38;;;;;;;1.90;0.90;;;17.40;63.60;;;;;;10270797;28;20215;-66
2022/02/05 15:53:00;;;;;;;3.37;1.20;;;17.40;63.70;;;;;;10283917;28;20203;-65
2022/02/05 15:58:24;;;;;;;1.90;0.97;;;17.40;63.60;;;;;;10284953;28;20237;-65
2022/02/05 16:03:48;;;;;;;1.90;0.80;;;17.40;63.60;;;;;;10278071;28;20338;-64
2022/02/05 16:09:10;;;;;;;1.80;1.13;;;17.40;63.60;;;;;;10283581;28;20323;-65
2022/02/05 16:14:32;;;;;;;1.77;0.93;;;17.40;63.60;;;;;;10283551;28;20211;-65
2022/02/05 16:19:56;;;;;;;1.90;0.80;;;17.40;63.60;;;;;;10291731;28;20227;-66
2022/02/05 16:25:21;;;;;;;2.40;1.10;;;17.40;63.50;;;;;;10293803;28;20203;-65
2022/02/05 16:30:45;;;;;;;3.10;1.07;;;17.40;63.50;;;;;;10291581;28;20212;-65
2022/02/05 16:36:11;;;;;;;1.33;0.87;;;17.50;63.50;;;;;;10290519;28;20314;-65
2022/02/05 16:41:33;;;;;;;2.53;0.97;;;17.50;63.50;;;;;;10354653;23;20231;-68
2022/02/05 16:46:56;;;;;;;3.17;1.00;;;17.40;63.50;;;;;;10367225;28;20194;-68
2022/02/05 16:52:24;;;;;;;3.07;1.20;;;17.50;63.70;;;;;;10348696;28;20670;-68
2022/02/05 16:57:46;;;;;;;2.90;0.93;;;17.40;63.80;;;;;;10348128;28;20207;-68
2022/02/05 17:03:10;;;;;;;3.27;0.80;;;17.50;63.70;;;;;;10347600;28;20207;-68
2022/02/05 17:08:35;;;;;;;2.70;1.20;;;17.50;63.60;;;;;;10299133;28;20242;-67
2022/02/05 17:13:57;;;;;;;4.20;0.93;;;17.40;63.60;;;;;;10324970;28;20206;-68
2022/02/05 17:19:20;;;;;;;1.47;0.80;;;17.40;63.60;;;;;;10336490;28;20714;-68
2022/02/05 17:24:43;;;;;;;3.30;1.20;;;17.40;63.60;;;;;;10340833;28;20667;-68
2022/02/05 17:30:06;;;;;;;1.63;0.80;;;17.40;63.70;;;;;;10323325;28;20219;-68
2022/02/05 17:35:31;;;;;;;2.87;1.00;;;17.40;63.60;;;;;;10326804;28;20282;-68
2022/02/05 17:40:56;;;;;;;2.47;0.80;;;17.40;63.50;;;;;;10320988;28;20724;-68
2022/02/05 17:46:19;;;;;;;2.53;1.00;;;17.40;63.60;;;;;;10312778;28;20195;-67
2022/02/05 17:51:41;;;;;;;2.00;1.00;;;17.40;63.50;;;;;;10324610;28;20223;-68
2022/02/05 17:57:05;;;;;;;1.07;0.60;;;17.40;63.50;;;;;;10333492;28;20219;-68
2022/02/05 18:02:30;;;;;;;1.67;0.90;;;17.40;63.40;;;;;;10333829;28;20702;-67
2022/02/05 18:08:11;;;;;;;2.07;1.00;;;17.40;63.50;;;;;;10336627;28;20842;-68
2022/02/05 18:13:56;;;;;;;2.73;0.90;;;17.40;63.40;;;;;;10306941;28;20283;-68
2022/02/05 18:19:19;;;;;;;2.53;1.17;;;17.40;63.40;;;;;;10291760;28;20243;-68
2022/02/05 18:24:41;;;;;;;1.63;0.90;;;17.40;63.50;;;;;;10321515;28;20211;-68
2022/02/05 18:30:06;;;;;;;1.57;0.90;;;17.40;63.40;;;;;;10302684;28;20219;-68
2022/02/05 18:35:28;;;;;;;1.87;0.90;;;17.40;63.40;;;;;;10349659;28;20219;-68
2022/02/05 18:40:52;;;;;;;3.03;0.83;;;17.40;63.40;;;;;;10340746;28;20250;-68
2022/02/05 18:46:15;;;;;;;2.00;1.00;;;17.40;63.40;;;;;;10345432;28;20192;-67
2022/02/05 18:51:38;;;;;;;1.60;0.73;;;17.40;63.30;;;;;;10340628;28;20612;-68
2022/02/05 18:57:01;;;;;;;2.57;0.90;;;17.40;63.30;;;;;;10351206;28;20295;-68
2022/02/05 19:02:42;;;;;;;1.33;0.93;;;17.40;63.30;;;;;;10343578;28;20236;-68
2022/02/05 19:14:05;;;;;;;1.43;0.60;;;17.40;63.40;;;;;;10328478;28;20203;-68
2022/02/05 19:19:29;;;;;;;2.83;0.90;;;17.40;63.30;;;;;;10338036;28;20695;-67
2022/02/05 19:24:51;;;;;;;0.87;0.80;;;17.40;63.40;;;;;;10320837;28;20187;-68
2022/02/05 19:30:13;;;;;;;2.73;1.03;;;17.40;63.30;;;;;;10323233;28;20223;-68
2022/02/05 19:35:37;;;;;;;1.33;0.63;;;17.40;63.30;;;;;;10325799;28;20594;-68
2022/02/05 19:41:00;;;;;;;2.30;0.90;;;17.40;63.30;;;;;;10342815;28;20230;-68
2022/02/05 19:46:35;;;;;;;2.33;0.83;;;17.40;63.40;;;;;;10336581;28;20591;-68
2022/02/05 19:51:59;;;;;;;1.97;0.93;;;17.40;63.40;;;;;;10355510;28;20242;-68
2022/02/05 19:57:22;;;;;;;1.80;0.70;;;17.40;63.50;;;;;;10332776;28;20230;-67
2022/02/05 20:02:44;;;;;;;1.33;0.80;;;17.40;63.50;;;;;;10340085;28;20686;-68
2022/02/05 20:08:17;;;;;;;1.37;0.70;;;17.40;63.40;;;;;;10340722;28;20214;-68
2022/02/05 20:13:40;;;;;;;1.07;0.67;;;17.40;63.50;;;;;;10339002;28;20278;-68
2022/02/05 20:19:03;;;;;;;2.40;0.90;;;17.40;63.50;;;;;;10339409;28;20309;-68
2022/02/05 20:24:27;;;;;;;2.07;0.70;;;17.40;63.50;;;;;;10337074;28;20198;-68
2022/02/05 20:29:50;;;;;;;1.30;0.80;;;17.40;63.40;;;;;;10340661;28;20294;-68
2022/02/05 20:35:12;;;;;;;1.87;0.87;;;17.40;63.50;;;;;;10340614;28;20226;-68
2022/02/05 20:40:36;;;;;;;1.10;0.80;;;17.40;63.50;;;;;;10322642;28;20223;-69
2022/02/05 20:46:00;;;;;;;1.43;0.60;;;17.40;63.50;;;;;;10328637;28;20214;-69
2022/02/05 20:51:22;;;;;;;1.97;0.93;;;17.30;63.40;;;;;;10303553;28;20334;-68
2022/02/05 20:56:46;;;;;;;1.43;0.63;;;17.40;63.40;;;;;;10328339;28;20218;-68
2022/02/05 21:02:10;;;;;;;2.07;0.73;;;17.40;63.50;;;;;;10331468;28;20226;-69
2022/02/05 21:07:32;;;;;;;0.83;0.60;;;17.30;63.40;;;;;;10327834;28;20245;-69
2022/02/05 21:12:55;;;;;;;1.67;0.90;;;17.40;63.50;;;;;;10337927;28;20215;-69
2022/02/05 21:18:17;;;;;;;1.30;0.70;;;17.30;63.50;;;;;;10353686;28;20207;-69
2022/02/05 21:23:40;;;;;;;2.70;0.87;;;17.30;63.40;;;;;;10354433;28;20214;-68
2022/02/05 21:29:08;;;;;;;1.97;0.70;;;17.30;63.40;;;;;;10355293;28;20210;-69
2022/02/05 21:34:44;;;;;;;2.07;0.80;;;17.40;64.10;;;;;;10351212;28;20211;-68
2022/02/05 21:40:08;;;;;;;1.80;0.63;;;17.30;63.40;;;;;;10338236;28;20302;-68
2022/02/05 21:45:35;;;;;;;1.67;0.90;;;17.40;63.60;;;;;;10355773;28;20198;-68
2022/02/05 21:51:00;;;;;;;1.67;0.50;;;17.30;63.50;;;;;;10354720;28;20258;-68
2022/02/05 21:56:30;;;;;;;2.00;0.80;;;17.30;63.60;;;;;;10352379;28;20249;-69
2022/02/05 22:01:58;;;;;;;1.83;0.80;;;17.30;63.60;;;;;;10352578;28;20321;-69
2022/02/05 22:07:20;;;;;;;1.20;0.77;;;17.30;63.70;;;;;;10352792;28;20187;-68
2022/02/05 22:12:42;;;;;;;1.37;0.70;;;17.30;63.70;;;;;;10351104;28;20244;-68
2022/02/05 22:18:06;;;;;;;1.77;0.87;;;17.30;63.70;;;;;;10356080;28;20210;-68
2022/02/05 22:23:28;;;;;;;1.37;0.70;;;17.30;63.70;;;;;;10348721;28;20214;-66
2022/02/05 22:28:51;;;;;;;1.23;0.50;;;17.30;63.70;;;;;;10350990;28;20710;-67
2022/02/05 22:34:15;;;;;;;1.27;0.60;;;17.30;63.70;;;;;;10350579;28;20206;-67
2022/02/05 22:39:37;;;;;;;1.90;0.70;;;17.30;63.70;;;;;;10349851;28;20610;-67
2022/02/05 22:44:59;;;;;;;0.60;0.47;;;17.30;63.70;;;;;;10346578;28;20202;-67
2022/02/05 22:50:23;;;;;;;1.00;0.70;;;17.30;63.70;;;;;;10347532;22;20750;-67
2022/02/05 22:55:45;;;;;;;1.93;0.70;;;17.30;63.70;;;;;;10289027;28;20227;-67
2022/02/05 23:01:07;;;;;;;1.33;0.50;;;17.30;63.80;;;;;;10286567;28;20516;-68
2022/02/05 23:06:30;;;;;;;2.03;0.73;;;17.30;63.80;;;;;;10290086;28;20675;-67
2022/02/05 23:12:23;;;;;;;1.70;1.03;;;17.30;63.80;;;;;;10288109;28;20223;-67
2022/02/05 23:40:40;;;;;;;0.60;0.50;;;17.30;63.80;;;;;;10285549;28;20412;-67
2022/02/05 23:46:04;;;;;;;1.43;0.60;;;17.20;63.80;;;;;;10286155;28;20560;-67
2022/02/05 23:51:26;;;;;;;1.93;0.80;;;17.20;63.80;;;;;;10285112;28;20303;-67
2022/02/05 23:56:51;;;;;;;1.00;0.50;;;17.20;63.80;;;;;;10286771;28;20219;-68
